createdAt,value
2023-01-13T00:01:11.868Z,21.18
2023-01-13T00:03:38.660Z,21.17
2023-01-13T00:06:06.864Z,21.15
2023-01-13T00:08:33.986Z,21.17
2023-01-13T00:11:00.557Z,21.14
2023-01-13T00:13:27.073Z,21.10
2023-01-13T00:16:01.819Z,21.10
2023-01-13T00:18:28.480Z,21.08
2023-01-13T00:21:12.833Z,21.08
2023-01-13T00:23:40.061Z,21.07
2023-01-13T00:26:09.284Z,21.05
2023-01-13T00:28:35.961Z,21.01
2023-01-13T00:31:13.843Z,21.00
2023-01-13T00:33:41.317Z,20.97
2023-01-13T00:36:10.915Z,20.96
2023-01-13T00:38:38.926Z,21.01
2023-01-13T00:41:14.217Z,20.99
2023-01-13T00:43:41.395Z,20.97
2023-01-13T00:46:10.491Z,20.95
2023-01-13T00:48:38.113Z,20.94
2023-01-13T00:51:17.092Z,20.94
2023-01-13T00:53:46.563Z,20.93
2023-01-13T00:56:15.173Z,20.91
2023-01-13T00:58:43.497Z,20.91
2023-01-13T01:01:22.247Z,20.90
2023-01-13T01:03:52.973Z,20.90
2023-01-13T01:06:21.982Z,20.89
2023-01-13T01:08:48.964Z,20.87
2023-01-13T01:11:27.163Z,20.86
2023-01-13T01:13:55.505Z,20.87
2023-01-13T01:16:24.290Z,20.84
2023-01-13T01:18:52.486Z,20.85
2023-01-13T01:21:19.715Z,20.83
2023-01-13T01:23:46.335Z,20.84
2023-01-13T01:26:22.007Z,20.83
2023-01-13T01:28:49.255Z,20.84
2023-01-13T01:31:18.495Z,20.81
2023-01-13T01:33:47.522Z,20.79
2023-01-13T01:36:16.689Z,20.79
2023-01-13T01:38:43.971Z,20.77
2023-01-13T01:41:22.773Z,20.76
2023-01-13T01:44:00.212Z,20.76
2023-01-13T01:46:37.412Z,20.76
2023-01-13T01:49:25.046Z,20.74
2023-01-13T01:52:00.320Z,20.74
2023-01-13T01:54:37.809Z,20.73
2023-01-13T01:57:05.549Z,20.71
2023-01-13T01:59:33.868Z,20.70
2023-01-13T02:02:00.814Z,20.69
2023-01-13T02:04:38.519Z,20.67
2023-01-13T02:07:05.916Z,20.67
2023-01-13T02:09:33.468Z,20.68
2023-01-13T02:12:18.619Z,20.67
2023-01-13T02:14:45.812Z,20.67
2023-01-13T02:17:21.317Z,20.64
2023-01-13T02:20:07.065Z,20.63
2023-01-13T02:22:58.362Z,20.62
2023-01-13T02:25:27.777Z,20.62
2023-01-13T02:28:08.052Z,20.59
2023-01-13T02:31:28.252Z,20.60
2023-01-13T02:34:16.959Z,20.60
2023-01-13T02:37:16.591Z,20.56
2023-01-13T02:39:57.476Z,20.55
2023-01-13T02:42:48.354Z,20.53
2023-01-13T02:45:28.472Z,20.52
2023-01-13T02:47:57.677Z,20.52
2023-01-13T02:50:58.880Z,20.49
2023-01-13T02:53:31.438Z,20.50
2023-01-13T02:56:00.515Z,20.47
2023-01-13T02:58:29.712Z,20.49
2023-01-13T03:00:56.864Z,20.47
2023-01-13T03:03:23.687Z,20.47
2023-01-13T03:05:53.741Z,20.48
2023-01-13T03:08:43.225Z,20.47
2023-01-13T03:11:12.858Z,20.46
2023-01-13T03:13:55.873Z,20.44
2023-01-13T03:16:48.033Z,20.45
2023-01-13T03:19:14.489Z,20.43
2023-01-13T03:21:51.817Z,20.43
2023-01-13T03:24:34.378Z,20.43
2023-01-13T03:27:25.745Z,20.39
2023-01-13T03:30:04.580Z,20.39
2023-01-13T03:32:36.791Z,20.38
2023-01-13T03:35:11.982Z,20.35
2023-01-13T03:37:43.915Z,20.36
2023-01-13T03:40:18.773Z,20.36
2023-01-13T03:43:08.684Z,20.35
2023-01-13T03:45:37.223Z,20.35
2023-01-13T03:48:10.259Z,20.36
2023-01-13T03:50:56.349Z,20.31
2023-01-13T03:53:31.429Z,20.31
2023-01-13T03:56:27.641Z,20.30
2023-01-13T03:58:54.942Z,20.28
2023-01-13T04:01:24.178Z,20.28
2023-01-13T04:03:56.577Z,20.29
2023-01-13T04:06:27.746Z,20.29
2023-01-13T04:09:11.914Z,20.26
2023-01-13T04:11:43.700Z,20.27
2023-01-13T04:14:12.903Z,20.26
2023-01-13T04:16:39.811Z,20.26
2023-01-13T04:19:06.581Z,20.25
2023-01-13T04:21:34.787Z,20.25
2023-01-13T04:24:01.261Z,20.24
2023-01-13T04:26:27.696Z,20.25
2023-01-13T04:28:55.470Z,20.24
2023-01-13T04:31:22.042Z,20.22
2023-01-13T04:33:48.617Z,20.21
2023-01-13T04:36:15.748Z,20.22
2023-01-13T04:38:42.321Z,20.20
2023-01-13T04:41:08.831Z,20.21
2023-01-13T04:43:35.259Z,20.18
2023-01-13T04:46:01.853Z,20.18
2023-01-13T04:48:28.301Z,20.18
2023-01-13T04:50:54.740Z,20.18
2023-01-13T04:53:21.218Z,20.17
2023-01-13T04:55:49.623Z,20.17
2023-01-13T04:58:16.299Z,20.15
2023-01-13T05:00:42.805Z,20.14
2023-01-13T05:03:09.449Z,20.13
2023-01-13T05:05:36.186Z,20.13
2023-01-13T05:08:02.682Z,20.12
2023-01-13T05:10:29.266Z,20.12
2023-01-13T05:13:14.355Z,20.11
2023-01-13T05:16:00.373Z,20.11
2023-01-13T05:18:29.375Z,20.10
2023-01-13T05:20:56.026Z,20.07
2023-01-13T05:23:40.790Z,20.07
2023-01-13T05:26:07.444Z,20.08
2023-01-13T05:28:34.301Z,20.05
2023-01-13T05:31:00.883Z,20.06
2023-01-13T05:33:27.395Z,20.06
2023-01-13T05:35:53.855Z,20.05
2023-01-13T05:38:21.669Z,20.05
2023-01-13T05:41:08.016Z,20.04
2023-01-13T05:43:34.986Z,20.03
2023-01-13T05:46:09.288Z,20.04
2023-01-13T05:48:38.684Z,20.03
2023-01-13T05:51:08.098Z,20.04
2023-01-13T05:53:35.463Z,20.07
2023-01-13T05:56:05.699Z,20.14
2023-01-13T05:58:32.570Z,20.17
2023-01-13T06:01:06.305Z,20.22
2023-01-13T06:03:33.601Z,20.32
2023-01-13T06:06:02.084Z,20.42
2023-01-13T06:08:29.035Z,20.49
2023-01-13T06:10:55.526Z,20.59
2023-01-13T06:13:22.159Z,20.67
2023-01-13T06:15:48.709Z,20.74
2023-01-13T06:18:15.348Z,20.84
2023-01-13T06:20:41.860Z,20.90
2023-01-13T06:23:10.832Z,20.99
2023-01-13T06:26:03.411Z,21.05
2023-01-13T06:28:29.868Z,21.13
2023-01-13T06:31:00.152Z,21.19
2023-01-13T06:33:35.267Z,21.26
2023-01-13T06:36:05.920Z,21.31
2023-01-13T06:38:35.802Z,21.38
2023-01-13T06:41:03.455Z,21.43
2023-01-13T06:43:29.969Z,21.48
2023-01-13T06:45:56.820Z,21.52
2023-01-13T06:48:27.856Z,21.57
2023-01-13T06:50:54.394Z,21.60
2023-01-13T06:53:20.984Z,21.65
2023-01-13T06:55:47.575Z,21.67
2023-01-13T06:58:14.081Z,21.71
2023-01-13T07:00:40.756Z,21.73
2023-01-13T07:03:12.263Z,21.76
2023-01-13T07:05:39.960Z,21.76
2023-01-13T07:08:07.415Z,21.78
2023-01-13T07:10:34.939Z,21.78
2023-01-13T07:13:21.241Z,21.82
2023-01-13T07:15:55.238Z,21.80
2023-01-13T07:18:22.041Z,21.82
2023-01-13T07:21:00.149Z,21.81
2023-01-13T07:23:38.365Z,21.81
2023-01-13T07:26:05.491Z,21.82
2023-01-13T07:28:32.560Z,21.84
2023-01-13T07:30:59.466Z,21.83
2023-01-13T07:33:26.215Z,21.85
2023-01-13T07:35:57.834Z,21.85
2023-01-13T07:38:24.743Z,21.85
2023-01-13T07:40:51.259Z,21.85
2023-01-13T07:43:32.594Z,21.81
2023-01-13T07:46:04.920Z,21.84
2023-01-13T07:48:33.528Z,21.88
2023-01-13T07:51:05.435Z,21.86
2023-01-13T07:53:32.451Z,21.90
2023-01-13T07:55:59.627Z,21.86
2023-01-13T07:58:27.011Z,21.94
2023-01-13T08:03:21.865Z,22.11
2023-01-13T08:05:48.411Z,22.13
2023-01-13T08:08:15.311Z,22.19
2023-01-13T08:10:42.109Z,22.28
2023-01-13T08:13:19.793Z,22.37
2023-01-13T08:16:08.431Z,22.40
2023-01-13T08:18:36.019Z,22.45
2023-01-13T08:21:05.873Z,22.48
2023-01-13T08:23:32.412Z,22.50
2023-01-13T08:26:04.545Z,22.50
2023-01-13T08:28:31.349Z,22.53
2023-01-13T08:31:02.728Z,22.52
2023-01-13T08:33:29.366Z,22.53
2023-01-13T08:35:56.328Z,22.56
2023-01-13T08:38:24.024Z,22.55
2023-01-13T08:40:50.864Z,22.56
2023-01-13T08:43:17.356Z,22.56
2023-01-13T08:45:43.872Z,22.58
2023-01-13T08:48:10.633Z,22.56
2023-01-13T08:50:37.404Z,22.56
2023-01-13T08:53:03.968Z,22.54
2023-01-13T08:55:30.414Z,22.56
2023-01-13T08:58:14.210Z,22.54
2023-01-13T09:00:42.224Z,22.52
2023-01-13T09:03:08.793Z,22.53
2023-01-13T09:05:35.828Z,22.53
2023-01-13T09:08:02.358Z,22.54
2023-01-13T09:10:28.924Z,22.53
2023-01-13T09:13:13.632Z,22.52
2023-01-13T09:15:42.467Z,22.52
2023-01-13T09:18:09.108Z,22.53
2023-01-13T09:20:36.030Z,22.53
2023-01-13T09:23:02.964Z,22.53
2023-01-13T09:25:29.508Z,22.52
2023-01-13T09:27:57.287Z,22.51
2023-01-13T09:30:24.394Z,22.50
2023-01-13T09:33:10.848Z,22.49
2023-01-13T09:35:37.291Z,22.48
2023-01-13T09:38:04.435Z,22.48
2023-01-13T09:40:30.905Z,22.46
2023-01-13T09:43:24.998Z,22.46
2023-01-13T09:45:53.888Z,22.46
2023-01-13T09:48:35.273Z,22.45
2023-01-13T09:51:20.918Z,22.45
2023-01-13T09:53:55.715Z,22.46
2023-01-13T09:56:23.431Z,22.45
2023-01-13T09:58:50.522Z,22.48
2023-01-13T10:01:29.662Z,22.49
2023-01-13T10:03:56.214Z,22.50
2023-01-13T10:06:42.518Z,22.49
2023-01-13T10:09:18.560Z,22.51
2023-01-13T10:12:16.678Z,22.52
2023-01-13T10:14:56.999Z,22.52
2023-01-13T10:17:46.002Z,22.52
2023-01-13T10:20:22.116Z,22.52
2023-01-13T10:23:26.471Z,22.54
2023-01-13T10:26:04.750Z,22.51
2023-01-13T10:28:34.431Z,22.50
2023-01-13T10:31:01.272Z,22.52
2023-01-13T10:33:28.578Z,22.52
2023-01-13T10:36:00.677Z,22.56
2023-01-13T10:38:29.024Z,22.57
2023-01-13T10:41:18.216Z,22.58
2023-01-13T10:44:13.322Z,22.60
2023-01-13T10:47:00.126Z,22.64
2023-01-13T10:49:36.422Z,22.66
2023-01-13T10:52:23.865Z,22.68
2023-01-13T10:54:55.125Z,22.68
2023-01-13T10:57:24.900Z,22.76
2023-01-13T10:59:53.036Z,22.79
2023-01-13T11:02:27.176Z,22.83
2023-01-13T11:05:00.524Z,22.87
2023-01-13T11:07:39.518Z,22.87
2023-01-13T11:10:05.951Z,22.87
2023-01-13T11:12:34.571Z,22.86
2023-01-13T11:15:05.824Z,22.91
2023-01-13T11:17:40.559Z,22.93
2023-01-13T11:20:16.812Z,22.92
2023-01-13T11:22:49.667Z,22.92
2023-01-13T11:25:21.079Z,22.90
2023-01-13T11:27:53.084Z,22.90
2023-01-13T11:30:33.603Z,22.89
2023-01-13T11:33:15.209Z,22.89
2023-01-13T11:35:46.018Z,22.89
2023-01-13T11:38:47.847Z,22.88
2023-01-13T11:41:46.927Z,22.87
2023-01-13T11:44:20.980Z,22.87
2023-01-13T11:46:50.463Z,22.86
2023-01-13T11:49:29.423Z,22.86
2023-01-13T11:52:20.884Z,22.83
2023-01-13T11:55:16.315Z,22.78
2023-01-13T11:58:08.748Z,22.77
2023-01-13T12:01:06.157Z,22.73
2023-01-13T12:03:48.315Z,22.72
2023-01-13T12:06:41.567Z,22.68
2023-01-13T12:09:16.371Z,22.66
2023-01-13T12:12:17.791Z,22.60
2023-01-13T12:15:02.950Z,22.58
2023-01-13T12:17:50.830Z,22.53
2023-01-13T12:20:35.639Z,22.51
2023-01-13T12:23:10.809Z,22.50
2023-01-13T12:25:52.669Z,22.45
2023-01-13T12:28:45.433Z,22.44
2023-01-13T12:31:13.599Z,22.43
2023-01-13T12:33:58.243Z,22.45
2023-01-13T12:36:27.741Z,22.46
2023-01-13T12:39:09.466Z,22.45
2023-01-13T12:42:03.479Z,22.42
2023-01-13T12:44:30.196Z,22.42
2023-01-13T12:47:00.055Z,22.36
2023-01-13T12:49:34.138Z,22.33
2023-01-13T12:52:16.154Z,22.36
2023-01-13T12:54:44.409Z,22.36
2023-01-13T12:57:24.282Z,22.34
2023-01-13T13:00:02.632Z,22.34
2023-01-13T13:02:42.999Z,22.33
2023-01-13T13:05:26.771Z,22.33
2023-01-13T13:08:08.463Z,22.32
2023-01-13T13:10:41.540Z,22.32
2023-01-13T13:13:24.466Z,22.33
2023-01-13T13:16:13.089Z,22.31
2023-01-13T13:18:42.669Z,22.34
2023-01-13T13:21:12.089Z,22.32
2023-01-13T13:24:04.663Z,22.31
2023-01-13T13:26:37.169Z,22.29
2023-01-13T13:29:29.298Z,22.24
2023-01-13T13:32:22.175Z,22.21
2023-01-13T13:34:59.049Z,22.20
2023-01-13T13:38:04.814Z,22.20
2023-01-13T13:40:57.656Z,22.17
2023-01-13T13:43:44.040Z,22.13
2023-01-13T13:46:48.007Z,22.10
2023-01-13T13:49:22.255Z,22.08
2023-01-13T13:52:01.609Z,22.05
2023-01-13T13:54:28.274Z,22.01
2023-01-13T13:56:54.989Z,22.00
2023-01-13T13:59:24.365Z,21.99
2023-01-13T14:04:28.059Z,21.94
2023-01-13T14:07:22.645Z,21.92
2023-01-13T14:09:54.311Z,21.92
2023-01-13T14:12:23.268Z,21.87
2023-01-13T14:14:50.893Z,21.89
2023-01-13T14:17:28.734Z,21.87
2023-01-13T14:20:02.942Z,21.85
2023-01-13T14:22:29.476Z,21.85
2023-01-13T14:24:57.751Z,21.84
2023-01-13T14:27:27.761Z,21.84
2023-01-13T14:29:56.507Z,21.82
2023-01-13T14:32:29.295Z,21.82
2023-01-13T14:34:55.687Z,21.80
2023-01-13T14:37:22.075Z,21.83
2023-01-13T14:39:48.566Z,21.82
2023-01-13T14:42:17.096Z,21.80
2023-01-13T14:44:47.652Z,21.79
2023-01-13T14:47:29.373Z,21.77
2023-01-13T14:50:03.759Z,21.73
2023-01-13T14:52:33.826Z,21.74
2023-01-13T14:55:10.186Z,21.72
2023-01-13T14:57:41.628Z,21.70
2023-01-13T15:00:14.318Z,21.71
2023-01-13T15:02:47.904Z,21.71
2023-01-13T15:05:17.631Z,21.71
2023-01-13T15:08:04.553Z,21.69
2023-01-13T15:10:38.061Z,21.69
2023-01-13T15:13:06.574Z,21.70
2023-01-13T15:15:35.806Z,21.69
2023-01-13T15:18:11.002Z,21.71
2023-01-13T15:20:39.183Z,21.72
2023-01-13T15:23:05.802Z,21.71
2023-01-13T15:25:37.399Z,21.73
2023-01-13T15:28:05.982Z,21.74
2023-01-13T15:30:32.829Z,21.74
2023-01-13T15:33:00.082Z,21.76
2023-01-13T15:35:28.680Z,21.78
2023-01-13T15:37:56.954Z,21.79
2023-01-13T15:40:25.197Z,21.79
2023-01-13T15:43:10.332Z,21.79
2023-01-13T15:45:56.117Z,21.80
2023-01-13T15:48:24.728Z,21.80
2023-01-13T15:50:51.653Z,21.82
2023-01-13T15:53:18.169Z,21.83
2023-01-13T15:55:48.930Z,21.83
2023-01-13T15:58:18.880Z,21.85
2023-01-13T16:00:45.395Z,21.85
2023-01-13T16:03:16.601Z,21.85
2023-01-13T16:05:44.295Z,21.84
2023-01-13T16:08:15.938Z,21.85
2023-01-13T16:10:42.973Z,21.88
2023-01-13T16:13:09.885Z,21.86
2023-01-13T16:15:36.768Z,21.86
2023-01-13T16:18:04.495Z,21.87
2023-01-13T16:20:31.173Z,21.87
2023-01-13T16:22:57.637Z,21.89
2023-01-13T16:25:26.499Z,21.89
2023-01-13T16:27:53.159Z,21.90
2023-01-13T16:30:27.503Z,21.90
2023-01-13T16:32:55.107Z,21.91
2023-01-13T16:35:22.828Z,21.90
2023-01-13T16:37:49.652Z,21.89
2023-01-13T16:40:31.073Z,21.90
2023-01-13T16:42:58.011Z,21.90
2023-01-13T16:45:25.078Z,21.90
2023-01-13T16:47:51.622Z,21.89
2023-01-13T16:50:39.816Z,21.86
2023-01-13T16:53:10.786Z,21.85
2023-01-13T16:55:41.154Z,21.82
2023-01-13T16:58:17.349Z,21.81
2023-01-13T17:00:46.809Z,21.80
2023-01-13T17:03:14.568Z,21.78
2023-01-13T17:05:43.157Z,21.77
2023-01-13T17:08:18.013Z,21.72
2023-01-13T17:10:47.789Z,21.71
2023-01-13T17:13:16.682Z,21.68
2023-01-13T17:15:44.594Z,21.64
2023-01-13T17:18:13.247Z,21.61
2023-01-13T17:20:39.893Z,21.57
2023-01-13T17:23:06.367Z,21.58
2023-01-13T17:25:32.831Z,21.56
2023-01-13T17:27:59.376Z,21.54
2023-01-13T17:30:25.884Z,21.55
2023-01-13T17:32:52.353Z,21.57
2023-01-13T17:35:24.460Z,21.55
2023-01-13T17:37:52.345Z,21.59
2023-01-13T17:40:18.881Z,21.62
2023-01-13T17:42:45.449Z,21.66
2023-01-13T17:45:12.385Z,21.72
2023-01-13T17:47:39.003Z,21.74
2023-01-13T17:50:06.058Z,21.75
2023-01-13T17:52:33.819Z,21.79
2023-01-13T17:55:00.274Z,21.82
2023-01-13T17:57:26.951Z,21.83
2023-01-13T17:59:53.409Z,21.88
2023-01-13T18:02:20.002Z,21.88
2023-01-13T18:04:46.657Z,21.91
2023-01-13T18:07:13.100Z,21.92
2023-01-13T18:09:39.570Z,21.96
2023-01-13T18:12:06.403Z,21.95
2023-01-13T18:14:32.924Z,21.97
2023-01-13T18:16:59.533Z,21.99
2023-01-13T18:20:04.463Z,21.98
2023-01-13T18:22:57.227Z,22.00
2023-01-13T18:25:42.621Z,21.99
2023-01-13T18:28:09.124Z,21.99
2023-01-13T18:30:35.650Z,21.98
2023-01-13T18:33:02.168Z,21.98
2023-01-13T18:35:30.035Z,21.98
2023-01-13T18:37:56.620Z,21.99
2023-01-13T18:40:23.081Z,21.98
2023-01-13T18:42:54.059Z,21.98
2023-01-13T18:45:26.599Z,21.98
2023-01-13T18:47:55.083Z,21.99
2023-01-13T18:50:22.384Z,22.00
2023-01-13T18:55:15.891Z,21.97
2023-01-13T18:57:42.594Z,21.97
2023-01-13T19:00:11.775Z,21.97
2023-01-13T19:02:38.740Z,21.97
2023-01-13T19:05:05.781Z,21.96
2023-01-13T19:10:02.198Z,21.98
2023-01-13T19:12:30.885Z,21.96
2023-01-13T19:17:27.160Z,21.96
2023-01-13T19:19:55.791Z,21.96
2023-01-13T19:22:32.576Z,21.95
2023-01-13T19:24:59.478Z,21.97
2023-01-13T19:27:27.551Z,21.96
2023-01-13T19:29:57.471Z,21.94
2023-01-13T19:32:24.922Z,21.94
2023-01-13T19:34:51.676Z,21.96
2023-01-13T19:37:18.854Z,21.94
2023-01-13T19:39:45.433Z,21.93
2023-01-13T19:42:30.998Z,21.95
2023-01-13T19:45:16.307Z,21.96
2023-01-13T19:47:45.411Z,21.95
2023-01-13T19:50:13.524Z,21.94
2023-01-13T19:52:41.449Z,21.94
2023-01-13T19:55:09.558Z,21.94
2023-01-13T19:57:36.937Z,21.94
2023-01-13T20:00:05.640Z,21.96
2023-01-13T20:02:32.237Z,21.94
2023-01-13T20:05:00.898Z,21.94
2023-01-13T20:07:29.845Z,21.91
2023-01-13T20:09:56.836Z,21.92
2023-01-13T20:12:26.452Z,21.94
2023-01-13T20:14:53.118Z,21.94
2023-01-13T20:17:21.554Z,21.95
2023-01-13T20:19:48.194Z,21.94
2023-01-13T20:22:14.882Z,21.92
2023-01-13T20:24:41.670Z,21.92
2023-01-13T20:27:08.283Z,21.94
2023-01-13T20:29:35.075Z,21.94
2023-01-13T20:32:01.949Z,21.93
2023-01-13T20:34:28.513Z,21.94
2023-01-13T20:36:54.979Z,21.93
2023-01-13T20:39:25.442Z,21.92
2023-01-13T20:42:10.477Z,21.93
2023-01-13T20:44:37.030Z,21.94
2023-01-13T20:47:03.799Z,21.94
2023-01-13T20:49:31.208Z,21.93
2023-01-13T20:51:59.009Z,21.94
2023-01-13T20:54:26.447Z,21.93
2023-01-13T20:56:53.637Z,21.94
2023-01-13T20:59:20.715Z,21.94
2023-01-13T21:01:47.288Z,21.95
2023-01-13T21:04:13.784Z,21.96
2023-01-13T21:06:41.588Z,21.95
2023-01-13T21:09:08.869Z,21.94
2023-01-13T21:11:53.774Z,21.94
2023-01-13T21:14:41.783Z,21.96
2023-01-13T21:17:28.660Z,21.95
2023-01-13T21:19:55.426Z,21.93
2023-01-13T21:22:22.015Z,21.93
2023-01-13T21:24:48.492Z,21.91
2023-01-13T21:27:15.176Z,21.92
2023-01-13T21:29:43.960Z,21.90
2023-01-13T21:32:10.874Z,21.91
2023-01-13T21:34:37.350Z,21.91
2023-01-13T21:37:03.850Z,21.92
2023-01-13T21:39:30.356Z,21.92
2023-01-13T21:42:15.438Z,21.93
2023-01-13T21:45:00.207Z,21.93
2023-01-13T21:47:45.039Z,21.93
2023-01-13T21:50:12.883Z,21.92
2023-01-13T21:52:42.572Z,21.91
2023-01-13T21:55:17.091Z,21.90
2023-01-13T21:57:52.082Z,21.90
2023-01-13T22:00:20.296Z,21.91
2023-01-13T22:02:47.930Z,21.91
2023-01-13T22:05:17.324Z,21.91
2023-01-13T22:07:44.247Z,21.94
2023-01-13T22:10:13.357Z,21.91
2023-01-13T22:12:40.388Z,21.93
2023-01-13T22:15:07.701Z,21.93
2023-01-13T22:17:34.273Z,21.92
2023-01-13T22:20:01.333Z,21.92
2023-01-13T22:22:29.091Z,21.92
2023-01-13T22:24:55.707Z,21.92
2023-01-13T22:27:25.350Z,21.91
2023-01-13T22:29:52.957Z,21.89
2023-01-13T22:32:20.895Z,21.86
2023-01-13T22:34:48.112Z,21.83
2023-01-13T22:37:14.991Z,21.80
2023-01-13T22:39:41.620Z,21.80
2023-01-13T22:42:10.004Z,21.78
2023-01-13T22:44:36.455Z,21.77
2023-01-13T22:47:02.960Z,21.72
2023-01-13T22:49:29.455Z,21.72
2023-01-13T22:51:56.010Z,21.67
2023-01-13T22:54:22.518Z,21.63
2023-01-13T22:56:48.974Z,21.62
2023-01-13T22:59:16.973Z,21.57
2023-01-13T23:01:43.863Z,21.54
2023-01-13T23:04:13.164Z,21.51
2023-01-13T23:06:40.331Z,21.48
2023-01-13T23:09:07.674Z,21.46
2023-01-13T23:11:34.311Z,21.42
2023-01-13T23:14:03.607Z,21.38
2023-01-13T23:16:32.608Z,21.34
2023-01-13T23:18:59.183Z,21.33
2023-01-13T23:21:29.814Z,21.28
2023-01-13T23:23:58.671Z,21.26
2023-01-13T23:26:26.499Z,21.24
2023-01-13T23:28:53.134Z,21.19
2023-01-13T23:31:21.963Z,21.18
2023-01-13T23:33:49.162Z,21.15
2023-01-13T23:36:24.165Z,21.12
2023-01-13T23:38:51.696Z,21.08
2023-01-13T23:41:20.838Z,21.06
2023-01-13T23:43:52.499Z,21.03
2023-01-13T23:46:20.252Z,21.01
2023-01-13T23:48:47.428Z,21.01
2023-01-13T23:51:14.284Z,20.98
2023-01-13T23:53:46.961Z,20.94
2023-01-13T23:56:22.058Z,20.92
2023-01-13T23:58:49.116Z,20.92
